createdAt,value
2023-01-25T00:01:55.265Z,75.88
2023-01-25T00:04:31.445Z,76.13
2023-01-25T00:07:07.826Z,76.73
2023-01-25T00:09:54.150Z,77.14
2023-01-25T00:12:34.690Z,77.70
2023-01-25T00:15:08.516Z,77.65
2023-01-25T00:17:44.743Z,78.24
2023-01-25T00:20:21.178Z,78.79
2023-01-25T00:22:57.637Z,79.40
2023-01-25T00:25:35.036Z,79.57
2023-01-25T00:28:14.507Z,79.44
2023-01-25T00:30:54.984Z,79.85
2023-01-25T00:33:47.504Z,80.14
2023-01-25T00:36:44.484Z,80.67
2023-01-25T00:39:22.548Z,81.74
2023-01-25T00:42:03.441Z,79.98
2023-01-25T00:44:42.125Z,82.38
2023-01-25T00:47:36.712Z,83.12
2023-01-25T00:50:12.093Z,83.87
2023-01-25T00:52:52.843Z,84.35
2023-01-25T00:55:35.218Z,84.38
2023-01-25T00:58:16.158Z,83.74
2023-01-25T01:00:53.016Z,83.30
2023-01-25T01:06:19.124Z,81.79
2023-01-25T01:08:59.320Z,82.09
2023-01-25T01:11:37.384Z,82.68
2023-01-25T01:14:23.283Z,83.22
2023-01-25T01:17:02.415Z,83.64
2023-01-25T01:19:41.095Z,84.51
2023-01-25T01:22:19.383Z,85.61
2023-01-25T01:24:57.703Z,86.10
2023-01-25T01:27:53.408Z,86.29
2023-01-25T01:30:36.544Z,86.96
2023-01-25T01:33:13.854Z,86.97
2023-01-25T01:35:51.426Z,87.38
2023-01-25T01:38:31.203Z,87.86
2023-01-25T01:41:07.295Z,88.11
2023-01-25T01:43:42.086Z,88.49
2023-01-25T01:46:40.228Z,89.04
2023-01-25T01:49:35.915Z,89.23
2023-01-25T01:52:25.024Z,89.44
2023-01-25T01:55:10.537Z,89.46
2023-01-25T01:58:02.058Z,89.76
2023-01-25T02:00:48.337Z,89.68
2023-01-25T02:03:42.598Z,90.03
2023-01-25T02:06:36.129Z,89.79
2023-01-25T02:09:18.713Z,90.24
2023-01-25T02:12:03.125Z,90.46
2023-01-25T02:14:40.612Z,90.34
2023-01-25T02:17:20.322Z,90.33
2023-01-25T02:20:23.251Z,90.12
2023-01-25T02:23:21.010Z,90.56
2023-01-25T02:26:00.343Z,90.58
2023-01-25T02:29:07.659Z,90.85
2023-01-25T02:31:45.562Z,91.18
2023-01-25T02:34:20.033Z,91.21
2023-01-25T02:36:57.875Z,91.50
2023-01-25T02:39:36.146Z,91.58
2023-01-25T02:42:12.373Z,91.78
2023-01-25T02:44:47.114Z,91.08
2023-01-25T02:47:21.218Z,90.64
2023-01-25T02:49:57.415Z,89.83
2023-01-25T02:52:35.375Z,89.68
2023-01-25T02:55:12.493Z,89.62
2023-01-25T02:57:47.678Z,89.75
2023-01-25T03:00:20.933Z,89.83
2023-01-25T03:02:57.436Z,90.19
2023-01-25T03:05:32.628Z,89.90
2023-01-25T03:08:05.534Z,89.52
2023-01-25T03:10:38.908Z,89.13
2023-01-25T03:13:21.155Z,89.27
2023-01-25T03:15:56.350Z,90.07
2023-01-25T03:18:29.477Z,90.20
2023-01-25T03:21:21.524Z,90.57
2023-01-25T03:24:03.300Z,91.01
2023-01-25T03:26:59.798Z,91.51
2023-01-25T03:29:42.409Z,91.84
2023-01-25T03:32:18.769Z,92.03
2023-01-25T03:34:52.163Z,92.17
2023-01-25T03:37:31.983Z,92.56
2023-01-25T03:40:05.326Z,92.65
2023-01-25T03:42:38.539Z,92.86
2023-01-25T03:45:16.329Z,93.26
2023-01-25T03:47:48.485Z,93.56
2023-01-25T03:50:24.476Z,93.48
2023-01-25T03:53:33.013Z,93.59
2023-01-25T03:56:21.719Z,93.25
2023-01-25T03:59:10.088Z,93.55
2023-01-25T04:01:41.400Z,93.89
2023-01-25T04:04:12.846Z,94.11
2023-01-25T04:06:47.529Z,94.43
2023-01-25T04:09:20.497Z,94.60
2023-01-25T04:11:55.613Z,94.91
2023-01-25T04:14:43.408Z,95.00
2023-01-25T04:17:24.877Z,95.13
2023-01-25T04:20:02.862Z,95.37
2023-01-25T04:22:42.350Z,95.66
2023-01-25T04:25:13.571Z,95.86
2023-01-25T04:27:53.299Z,95.89
2023-01-25T04:30:25.758Z,95.72
2023-01-25T04:32:57.642Z,96.01
2023-01-25T04:35:33.879Z,96.09
2023-01-25T04:38:09.382Z,96.19
2023-01-25T04:40:44.815Z,96.40
2023-01-25T04:43:18.102Z,96.60
2023-01-25T04:45:49.878Z,96.58
2023-01-25T04:48:27.357Z,96.91
2023-01-25T04:51:04.554Z,96.83
2023-01-25T04:53:39.758Z,96.99
2023-01-25T04:56:10.476Z,96.88
2023-01-25T04:58:55.992Z,96.84
2023-01-25T05:01:27.216Z,96.79
2023-01-25T05:03:58.101Z,96.87
2023-01-25T05:06:38.088Z,96.97
2023-01-25T05:09:09.824Z,97.04
2023-01-25T05:11:42.827Z,97.26
2023-01-25T05:14:20.291Z,97.61
2023-01-25T05:16:53.137Z,97.66
2023-01-25T05:19:24.404Z,97.89
2023-01-25T05:22:02.472Z,97.86
2023-01-25T05:24:47.533Z,97.93
2023-01-25T05:27:21.637Z,98.01
2023-01-25T05:29:59.063Z,97.85
2023-01-25T05:32:41.299Z,98.05
2023-01-25T05:35:12.171Z,98.17
2023-01-25T05:37:43.416Z,98.04
2023-01-25T05:40:21.310Z,98.21
2023-01-25T05:43:00.413Z,98.01
2023-01-25T05:45:32.859Z,98.31
2023-01-25T05:48:05.875Z,98.33
2023-01-25T05:50:38.110Z,98.33
2023-01-25T05:53:13.318Z,98.49
2023-01-25T05:55:45.778Z,98.57
2023-01-25T05:58:19.107Z,98.62
2023-01-25T06:00:49.746Z,98.62
2023-01-25T06:03:32.502Z,98.66
2023-01-25T06:06:05.208Z,98.79
2023-01-25T06:08:37.671Z,98.76
2023-01-25T06:11:20.668Z,98.71
2023-01-25T06:13:53.231Z,98.99
2023-01-25T06:16:25.316Z,98.75
2023-01-25T06:19:11.815Z,98.92
2023-01-25T06:21:50.138Z,98.85
2023-01-25T06:24:20.863Z,98.97
2023-01-25T06:26:53.461Z,99.05
2023-01-25T06:29:24.813Z,98.98
2023-01-25T06:31:57.087Z,98.66
2023-01-25T06:34:28.191Z,98.91
2023-01-25T06:37:00.652Z,99.06
2023-01-25T06:39:31.516Z,99.22
2023-01-25T06:42:01.747Z,99.19
2023-01-25T06:44:32.924Z,99.19
2023-01-25T06:47:05.712Z,99.21
2023-01-25T06:49:36.781Z,99.42
2023-01-25T06:52:06.952Z,99.25
2023-01-25T06:54:37.933Z,99.25
2023-01-25T06:57:15.914Z,99.41
2023-01-25T06:59:46.864Z,99.38
2023-01-25T07:02:18.128Z,99.59
2023-01-25T07:04:48.701Z,99.31
2023-01-25T07:07:21.293Z,99.43
2023-01-25T07:09:52.818Z,99.60
2023-01-25T07:12:23.552Z,99.13
2023-01-25T07:14:54.120Z,99.29
2023-01-25T07:17:24.781Z,99.71
2023-01-25T07:19:55.902Z,99.94
2023-01-25T07:22:26.397Z,99.53
2023-01-25T07:24:59.041Z,99.96
2023-01-25T07:27:39.655Z,99.99
2023-01-25T07:30:10.926Z,99.90
2023-01-25T07:32:41.658Z,99.84
2023-01-25T07:35:11.875Z,99.90
2023-01-25T07:37:43.423Z,99.91
2023-01-25T07:40:16.356Z,99.81
2023-01-25T07:42:47.738Z,99.69
2023-01-25T07:45:20.831Z,99.39
2023-01-25T07:47:52.177Z,99.42
2023-01-25T07:50:23.868Z,99.34
2023-01-25T07:52:54.637Z,99.90
2023-01-25T07:55:24.774Z,99.87
2023-01-25T07:57:57.545Z,99.53
2023-01-25T08:00:28.728Z,99.52
2023-01-25T08:02:59.296Z,99.54
2023-01-25T08:05:29.536Z,99.69
2023-01-25T08:08:02.028Z,99.96
2023-01-25T08:10:33.236Z,99.91
2023-01-25T08:13:04.015Z,99.97
2023-01-25T08:15:35.107Z,99.99
2023-01-25T08:18:06.824Z,99.88
2023-01-25T08:20:39.960Z,99.99
2023-01-25T08:23:10.556Z,99.99
2023-01-25T08:25:40.791Z,99.99
2023-01-25T08:28:12.040Z,99.99
2023-01-25T08:30:56.431Z,99.99
2023-01-25T08:33:28.071Z,99.99
2023-01-25T08:35:58.857Z,99.99
2023-01-25T08:38:31.398Z,99.99
2023-01-25T08:41:15.983Z,99.99
2023-01-25T08:43:48.647Z,99.99
2023-01-25T08:46:19.514Z,99.99
2023-01-25T08:48:51.048Z,99.99
2023-01-25T08:51:22.774Z,99.99
2023-01-25T08:53:54.391Z,99.99
2023-01-25T08:56:25.091Z,99.99
2023-01-25T08:58:56.131Z,99.99
2023-01-25T09:01:29.116Z,99.99
2023-01-25T09:04:00.236Z,99.99
2023-01-25T09:06:30.975Z,99.99
2023-01-25T09:09:02.296Z,99.99
2023-01-25T09:11:35.676Z,99.98
2023-01-25T09:14:07.870Z,99.99
2023-01-25T09:16:39.663Z,99.99
2023-01-25T09:19:12.825Z,99.97
2023-01-25T09:21:44.725Z,99.88
2023-01-25T09:24:15.319Z,99.73
2023-01-25T09:26:55.772Z,99.93
2023-01-25T09:29:32.033Z,99.99
2023-01-25T09:32:04.167Z,99.90
2023-01-25T09:34:38.175Z,99.28
2023-01-25T09:37:08.497Z,99.10
2023-01-25T09:39:39.601Z,98.96
2023-01-25T09:42:21.355Z,98.95
2023-01-25T09:44:59.301Z,98.68
2023-01-25T09:47:43.767Z,98.66
2023-01-25T09:50:36.037Z,98.59
2023-01-25T09:53:27.785Z,98.44
2023-01-25T09:56:02.452Z,97.40
2023-01-25T09:58:44.511Z,96.84
2023-01-25T10:01:21.766Z,91.71
2023-01-25T10:04:06.907Z,88.81
2023-01-25T10:06:48.825Z,90.32
2023-01-25T10:09:38.799Z,91.62
2023-01-25T10:12:23.141Z,92.23
2023-01-25T10:14:54.986Z,92.67
2023-01-25T10:17:43.141Z,92.86
2023-01-25T10:20:45.645Z,92.06
2023-01-25T10:23:36.541Z,91.81
2023-01-25T10:26:30.477Z,92.43
2023-01-25T10:29:15.806Z,91.89
2023-01-25T10:32:02.515Z,91.38
2023-01-25T10:34:55.310Z,91.50
2023-01-25T10:37:31.974Z,89.72
2023-01-25T10:40:05.812Z,88.15
2023-01-25T10:42:49.858Z,85.88
2023-01-25T10:45:21.093Z,85.49
2023-01-25T10:48:15.411Z,84.51
2023-01-25T10:50:51.973Z,83.66
2023-01-25T10:53:31.247Z,83.58
2023-01-25T10:56:06.077Z,79.15
2023-01-25T10:58:41.494Z,79.74
2023-01-25T11:01:26.960Z,79.93
2023-01-25T11:03:58.538Z,81.22
2023-01-25T11:06:38.070Z,82.73
2023-01-25T11:09:24.295Z,81.39
2023-01-25T11:12:17.546Z,81.46
2023-01-25T11:14:53.027Z,79.91
2023-01-25T11:17:32.989Z,79.23
2023-01-25T11:20:11.807Z,77.60
2023-01-25T11:22:55.697Z,77.46
2023-01-25T11:25:35.559Z,76.89
2023-01-25T11:28:18.935Z,76.59
2023-01-25T11:30:51.127Z,74.86
2023-01-25T11:33:24.026Z,73.36
2023-01-25T11:36:00.770Z,74.46
2023-01-25T11:38:32.516Z,73.13
2023-01-25T11:41:07.642Z,71.42
2023-01-25T11:44:00.935Z,71.39
2023-01-25T11:46:53.444Z,70.69
2023-01-25T11:49:41.804Z,70.61
2023-01-25T11:52:31.070Z,69.08
2023-01-25T11:55:30.130Z,70.72
2023-01-25T11:58:01.306Z,66.25
2023-01-25T12:01:10.253Z,68.85
2023-01-25T12:04:07.644Z,66.18
2023-01-25T12:07:08.646Z,66.00
2023-01-25T12:09:45.242Z,64.25
2023-01-25T12:12:50.289Z,66.33
2023-01-25T12:15:50.664Z,65.41
2023-01-25T12:18:45.797Z,61.86
2023-01-25T12:21:31.274Z,62.76
2023-01-25T12:24:29.957Z,61.39
2023-01-25T12:27:26.003Z,63.81
2023-01-25T12:30:13.459Z,60.52
2023-01-25T12:33:14.411Z,64.41
2023-01-25T12:35:58.863Z,61.73
2023-01-25T12:38:51.017Z,61.85
2023-01-25T12:41:38.323Z,58.98
2023-01-25T12:44:30.310Z,62.16
2023-01-25T12:47:23.964Z,62.72
2023-01-25T12:50:07.874Z,59.70
2023-01-25T12:52:44.207Z,57.85
2023-01-25T12:55:16.830Z,56.62
2023-01-25T12:58:32.808Z,57.59
2023-01-25T13:01:14.178Z,55.11
2023-01-25T13:03:59.605Z,54.01
2023-01-25T13:06:46.433Z,54.77
2023-01-25T13:09:49.358Z,54.01
2023-01-25T13:12:20.712Z,53.03
2023-01-25T13:14:52.132Z,54.14
2023-01-25T13:17:27.469Z,54.19
2023-01-25T13:19:59.150Z,51.77
2023-01-25T13:22:55.107Z,51.48
2023-01-25T13:25:26.570Z,50.06
2023-01-25T13:28:34.735Z,52.63
2023-01-25T13:31:06.248Z,49.59
2023-01-25T13:33:38.180Z,50.34
2023-01-25T13:36:36.451Z,52.36
2023-01-25T13:39:28.866Z,50.62
2023-01-25T13:42:06.158Z,50.43
2023-01-25T13:44:40.700Z,48.72
2023-01-25T13:47:18.110Z,50.29
2023-01-25T13:49:51.817Z,48.33
2023-01-25T13:52:26.025Z,49.37
2023-01-25T13:54:59.640Z,50.37
2023-01-25T13:57:33.229Z,49.38
2023-01-25T14:00:17.907Z,48.26
2023-01-25T14:02:58.611Z,49.52
2023-01-25T14:05:33.112Z,51.85
2023-01-25T14:08:06.678Z,50.47
2023-01-25T14:10:39.188Z,51.95
2023-01-25T14:13:20.425Z,50.41
2023-01-25T14:16:03.640Z,50.09
2023-01-25T14:18:39.601Z,49.83
2023-01-25T14:21:29.112Z,53.03
2023-01-25T14:24:12.923Z,51.81
2023-01-25T14:26:49.215Z,50.92
2023-01-25T14:29:32.629Z,55.10
2023-01-25T14:32:06.420Z,50.84
2023-01-25T14:34:39.544Z,49.55
2023-01-25T14:37:24.047Z,50.60
2023-01-25T14:39:57.914Z,49.09
2023-01-25T14:42:31.043Z,50.18
2023-01-25T14:45:06.945Z,49.02
2023-01-25T14:47:48.020Z,47.89
2023-01-25T14:50:39.100Z,49.71
2023-01-25T14:53:31.291Z,48.61
2023-01-25T14:56:08.404Z,45.38
2023-01-25T14:58:59.494Z,46.64
2023-01-25T15:01:44.241Z,45.56
2023-01-25T15:04:16.640Z,44.38
2023-01-25T15:06:56.104Z,44.24
2023-01-25T15:09:44.379Z,45.70
2023-01-25T15:12:34.719Z,47.24
2023-01-25T15:15:23.307Z,45.77
2023-01-25T15:18:04.440Z,46.22
2023-01-25T15:20:47.245Z,42.41
2023-01-25T15:23:29.609Z,42.97
2023-01-25T15:26:07.608Z,41.12
2023-01-25T15:28:49.719Z,43.58
2023-01-25T15:31:44.713Z,44.86
2023-01-25T15:34:27.006Z,44.66
2023-01-25T15:37:01.342Z,41.05
2023-01-25T15:39:38.442Z,45.34
2023-01-25T15:42:17.244Z,43.94
2023-01-25T15:44:51.618Z,40.17
2023-01-25T15:47:29.265Z,46.49
2023-01-25T15:50:03.205Z,43.24
2023-01-25T15:52:37.299Z,41.86
2023-01-25T15:55:16.569Z,42.70
2023-01-25T15:57:54.771Z,42.11
2023-01-25T16:00:27.296Z,43.72
2023-01-25T16:03:15.744Z,39.80
2023-01-25T16:06:04.649Z,40.49
2023-01-25T16:08:36.635Z,41.91
2023-01-25T16:11:09.217Z,44.31
2023-01-25T16:13:43.430Z,41.41
2023-01-25T16:16:39.992Z,39.31
2023-01-25T16:19:18.524Z,36.76
2023-01-25T16:21:51.289Z,38.66
2023-01-25T16:24:25.614Z,38.77
2023-01-25T16:27:00.380Z,36.48
2023-01-25T16:29:32.989Z,35.75
2023-01-25T16:32:07.590Z,36.46
2023-01-25T16:34:39.171Z,38.33
2023-01-25T16:37:18.904Z,37.26
2023-01-25T16:39:50.264Z,40.77
2023-01-25T16:42:22.763Z,42.27
2023-01-25T16:44:54.204Z,38.55
2023-01-25T16:47:26.117Z,43.66
2023-01-25T16:49:59.053Z,39.69
2023-01-25T16:52:30.013Z,44.62
2023-01-25T16:55:01.628Z,39.34
2023-01-25T16:57:33.299Z,41.68
2023-01-25T17:00:07.169Z,43.03
2023-01-25T17:02:58.647Z,40.38
2023-01-25T17:05:35.670Z,38.32
2023-01-25T17:08:06.862Z,39.59
2023-01-25T17:10:39.226Z,40.01
2023-01-25T17:13:10.925Z,39.15
2023-01-25T17:15:42.256Z,39.67
2023-01-25T17:18:14.744Z,41.65
2023-01-25T17:20:46.109Z,41.17
2023-01-25T17:23:16.235Z,40.34
2023-01-25T17:25:48.638Z,40.41
2023-01-25T17:28:20.748Z,40.98
2023-01-25T17:30:54.769Z,41.16
2023-01-25T17:33:25.449Z,39.67
2023-01-25T17:36:00.348Z,39.53
2023-01-25T17:38:33.150Z,37.61
2023-01-25T17:41:11.581Z,41.25
2023-01-25T17:43:42.863Z,40.38
2023-01-25T17:46:16.213Z,39.02
2023-01-25T17:48:49.651Z,39.76
2023-01-25T17:51:20.226Z,37.55
2023-01-25T17:53:50.906Z,37.11
2023-01-25T17:56:22.655Z,36.43
2023-01-25T17:58:53.644Z,38.36
2023-01-25T18:01:26.928Z,37.26
2023-01-25T18:03:58.836Z,37.47
2023-01-25T18:06:33.457Z,40.46
2023-01-25T18:09:08.245Z,39.35
2023-01-25T18:11:41.572Z,39.02
2023-01-25T18:14:20.078Z,40.39
2023-01-25T18:16:51.743Z,39.47
2023-01-25T18:19:22.676Z,38.29
2023-01-25T18:21:52.651Z,41.76
2023-01-25T18:24:35.019Z,38.58
2023-01-25T18:27:21.454Z,39.39
2023-01-25T18:29:59.190Z,41.43
2023-01-25T18:32:33.996Z,39.60
2023-01-25T18:35:05.527Z,41.06
2023-01-25T18:37:44.645Z,41.81
2023-01-25T18:40:18.457Z,41.24
2023-01-25T18:42:50.562Z,43.07
2023-01-25T18:45:21.417Z,43.63
2023-01-25T18:47:52.737Z,44.24
2023-01-25T18:50:24.755Z,44.78
2023-01-25T18:52:56.919Z,45.78
2023-01-25T18:55:29.078Z,44.18
2023-01-25T18:58:05.161Z,46.50
2023-01-25T19:00:36.963Z,45.52
2023-01-25T19:03:07.384Z,48.86
2023-01-25T19:05:38.089Z,49.81
2023-01-25T19:08:08.851Z,52.04
2023-01-25T19:10:40.038Z,53.52
2023-01-25T19:13:11.203Z,53.54
2023-01-25T19:15:41.392Z,52.92
2023-01-25T19:18:12.294Z,54.49
2023-01-25T19:20:43.389Z,54.39
2023-01-25T19:23:13.798Z,55.00
2023-01-25T19:25:43.904Z,53.96
2023-01-25T19:28:15.700Z,54.95
2023-01-25T19:30:47.274Z,55.25
2023-01-25T19:33:18.330Z,55.41
2023-01-25T19:35:48.912Z,54.78
2023-01-25T19:38:20.498Z,55.38
2023-01-25T19:40:51.515Z,56.44
2023-01-25T19:43:22.653Z,55.77
2023-01-25T19:45:53.136Z,55.85
2023-01-25T19:48:55.823Z,56.31
2023-01-25T19:51:31.815Z,57.58
2023-01-25T19:54:04.172Z,58.80
2023-01-25T19:56:38.124Z,59.13
2023-01-25T19:59:21.657Z,59.75
2023-01-25T20:01:53.715Z,59.64
2023-01-25T20:04:27.132Z,60.24
2023-01-25T20:06:58.166Z,61.19
2023-01-25T20:09:29.950Z,61.85
2023-01-25T20:12:01.915Z,61.89
2023-01-25T20:14:32.480Z,63.33
2023-01-25T20:17:02.494Z,63.23
2023-01-25T20:19:33.993Z,63.76
2023-01-25T20:22:05.806Z,63.56
2023-01-25T20:24:36.089Z,63.76
2023-01-25T20:27:06.513Z,62.81
2023-01-25T20:29:37.455Z,61.48
2023-01-25T20:32:09.683Z,60.95
2023-01-25T20:34:41.129Z,61.69
2023-01-25T20:37:11.338Z,62.16
2023-01-25T20:39:41.551Z,61.43
2023-01-25T20:42:13.311Z,60.71
2023-01-25T20:44:44.500Z,63.76
2023-01-25T20:47:14.907Z,64.22
2023-01-25T20:49:44.926Z,65.85
2023-01-25T20:52:17.803Z,67.24
2023-01-25T20:54:48.796Z,67.30
2023-01-25T20:57:18.889Z,66.97
2023-01-25T20:59:49.571Z,64.39
2023-01-25T21:02:19.832Z,64.97
2023-01-25T21:04:51.225Z,64.50
2023-01-25T21:07:23.800Z,65.21
2023-01-25T21:09:54.448Z,65.35
2023-01-25T21:12:24.425Z,65.76
2023-01-25T21:14:56.544Z,66.66
2023-01-25T21:17:28.591Z,67.01
2023-01-25T21:19:59.614Z,66.98
2023-01-25T21:22:32.440Z,68.07
2023-01-25T21:25:03.360Z,67.95
2023-01-25T21:27:34.342Z,67.97
2023-01-25T21:30:05.260Z,68.30
2023-01-25T21:32:37.887Z,68.19
2023-01-25T21:35:09.503Z,68.16
2023-01-25T21:37:40.347Z,69.32
2023-01-25T21:40:11.906Z,69.32
2023-01-25T21:42:42.363Z,69.49
2023-01-25T21:45:31.556Z,70.07
2023-01-25T21:48:03.292Z,70.71
2023-01-25T21:50:52.212Z,71.35
2023-01-25T21:53:23.595Z,71.89
2023-01-25T21:56:00.312Z,72.02
2023-01-25T21:58:32.967Z,72.43
2023-01-25T22:01:03.496Z,73.33
2023-01-25T22:03:33.613Z,73.22
2023-01-25T22:06:05.253Z,73.28
2023-01-25T22:08:36.284Z,73.74
2023-01-25T22:11:09.339Z,73.91
2023-01-25T22:13:40.596Z,74.39
2023-01-25T22:16:14.315Z,74.89
2023-01-25T22:18:49.199Z,75.32
2023-01-25T22:21:29.842Z,76.07
2023-01-25T22:24:02.056Z,76.37
2023-01-25T22:26:48.577Z,76.69
2023-01-25T22:29:19.888Z,77.40
2023-01-25T22:31:50.302Z,77.94
2023-01-25T22:34:20.296Z,78.23
2023-01-25T22:36:51.759Z,78.93
2023-01-25T22:39:22.639Z,78.97
2023-01-25T22:41:52.589Z,79.30
2023-01-25T22:44:23.672Z,80.09
2023-01-25T22:46:55.102Z,80.36
2023-01-25T22:49:26.850Z,81.02
2023-01-25T22:51:57.752Z,81.30
2023-01-25T22:54:28.076Z,81.69
2023-01-25T22:57:00.971Z,81.93
2023-01-25T22:59:32.335Z,82.26
2023-01-25T23:02:02.938Z,82.47
2023-01-25T23:04:33.359Z,82.90
2023-01-25T23:07:13.489Z,83.00
2023-01-25T23:09:49.529Z,83.07
2023-01-25T23:12:19.860Z,80.85
2023-01-25T23:14:55.081Z,83.48
2023-01-25T23:17:45.399Z,83.85
2023-01-25T23:20:16.959Z,84.19
2023-01-25T23:22:47.683Z,84.37
2023-01-25T23:25:18.758Z,84.58
2023-01-25T23:27:51.417Z,84.84
2023-01-25T23:30:23.162Z,85.06
2023-01-25T23:32:53.851Z,85.21
2023-01-25T23:35:24.578Z,85.29
2023-01-25T23:37:55.051Z,85.65
2023-01-25T23:40:28.221Z,85.71
2023-01-25T23:42:59.323Z,85.95
2023-01-25T23:45:30.292Z,85.99
2023-01-25T23:48:02.428Z,86.07
2023-01-25T23:50:37.431Z,86.07
2023-01-25T23:53:08.228Z,86.22
2023-01-25T23:55:39.426Z,86.21
2023-01-25T23:58:10.751Z,85.38
